sensor_id;sensor_type;location;lat;lon;timestamp;P1;durP1;ratioP1;P2;durP2;ratioP2
20794;SDS011;28087;-33.874;151.240;2023-07-28T00:02:16;3.67;;;1.38;;
20794;SDS011;28087;-33.874;151.240;2023-07-28T00:05:28;3.15;;;1.23;;
20794;SDS011;28087;-33.874;151.240;2023-07-28T00:08:38;4.43;;;1.27;;
20794;SDS011;28087;-33.874;151.240;2023-07-28T00:11:45;4.20;;;1.33;;
20794;SDS011;28087;-33.874;151.240;2023-07-28T00:14:56;4.35;;;1.20;;
20794;SDS011;28087;-33.874;151.240;2023-07-28T00:18:07;3.17;;;1.35;;
20794;SDS011;28087;-33.874;151.240;2023-07-28T00:21:28;2.63;;;1.10;;
20794;SDS011;28087;-33.874;151.240;2023-07-28T00:25:03;3.63;;;1.20;;
20794;SDS011;28087;-33.874;151.240;2023-07-28T00:28:47;3.00;;;1.20;;
20794;SDS011;28087;-33.874;151.240;2023-07-28T00:32:14;3.15;;;1.40;;
20794;SDS011;28087;-33.874;151.240;2023-07-28T00:35:50;4.32;;;1.35;;
20794;SDS011;28087;-33.874;151.240;2023-07-28T00:39:27;3.80;;;1.30;;
20794;SDS011;28087;-33.874;151.240;2023-07-28T00:42:43;2.60;;;1.20;;
20794;SDS011;28087;-33.874;151.240;2023-07-28T00:46:27;4.82;;;1.35;;
20794;SDS011;28087;-33.874;151.240;2023-07-28T00:49:46;3.70;;;1.48;;
20794;SDS011;28087;-33.874;151.240;2023-07-28T00:53:04;3.88;;;1.30;;
20794;SDS011;28087;-33.874;151.240;2023-07-28T01:00:33;3.20;;;1.40;;
20794;SDS011;28087;-33.874;151.240;2023-07-28T01:08:29;7.47;;;2.03;;
20794;SDS011;28087;-33.874;151.240;2023-07-28T01:11:50;3.90;;;1.35;;
20794;SDS011;28087;-33.874;151.240;2023-07-28T01:15:09;4.90;;;1.60;;
20794;SDS011;28087;-33.874;151.240;2023-07-28T01:18:49;3.67;;;1.23;;
20794;SDS011;28087;-33.874;151.240;2023-07-28T01:22:20;3.63;;;1.30;;
20794;SDS011;28087;-33.874;151.240;2023-07-28T01:26:37;2.20;;;1.10;;
20794;SDS011;28087;-33.874;151.240;2023-07-28T01:30:01;4.20;;;1.27;;
20794;SDS011;28087;-33.874;151.240;2023-07-28T01:36:59;3.78;;;1.60;;
20794;SDS011;28087;-33.874;151.240;2023-07-28T01:40:08;5.63;;;1.40;;
20794;SDS011;28087;-33.874;151.240;2023-07-28T01:43:20;4.75;;;1.20;;
20794;SDS011;28087;-33.874;151.240;2023-07-28T01:46:29;4.53;;;1.38;;
20794;SDS011;28087;-33.874;151.240;2023-07-28T01:49:40;6.47;;;1.40;;
20794;SDS011;28087;-33.874;151.240;2023-07-28T01:52:47;4.20;;;1.50;;
20794;SDS011;28087;-33.874;151.240;2023-07-28T01:55:55;4.53;;;1.50;;
20794;SDS011;28087;-33.874;151.240;2023-07-28T01:59:05;3.40;;;1.50;;
20794;SDS011;28087;-33.874;151.240;2023-07-28T02:02:14;5.25;;;1.50;;
20794;SDS011;28087;-33.874;151.240;2023-07-28T02:05:23;5.70;;;1.30;;
20794;SDS011;28087;-33.874;151.240;2023-07-28T02:08:45;4.75;;;1.35;;
20794;SDS011;28087;-33.874;151.240;2023-07-28T02:12:02;4.45;;;1.50;;
20794;SDS011;28087;-33.874;151.240;2023-07-28T02:15:29;3.28;;;1.20;;
20794;SDS011;28087;-33.874;151.240;2023-07-28T02:18:42;5.85;;;1.50;;
20794;SDS011;28087;-33.874;151.240;2023-07-28T02:21:52;3.15;;;1.40;;
20794;SDS011;28087;-33.874;151.240;2023-07-28T02:25:00;4.05;;;1.45;;
20794;SDS011;28087;-33.874;151.240;2023-07-28T02:28:17;3.92;;;1.40;;
20794;SDS011;28087;-33.874;151.240;2023-07-28T02:31:37;4.57;;;1.42;;
20794;SDS011;28087;-33.874;151.240;2023-07-28T02:34:48;5.80;;;1.52;;
20794;SDS011;28087;-33.874;151.240;2023-07-28T02:37:58;4.20;;;1.40;;
20794;SDS011;28087;-33.874;151.240;2023-07-28T02:41:09;3.95;;;1.23;;
20794;SDS011;28087;-33.874;151.240;2023-07-28T02:44:17;3.03;;;1.25;;
20794;SDS011;28087;-33.874;151.240;2023-07-28T02:47:31;4.55;;;1.40;;
20794;SDS011;28087;-33.874;151.240;2023-07-28T02:50:37;4.05;;;1.45;;
20794;SDS011;28087;-33.874;151.240;2023-07-28T02:53:45;2.80;;;1.40;;
20794;SDS011;28087;-33.874;151.240;2023-07-28T02:56:56;3.53;;;1.35;;
20794;SDS011;28087;-33.874;151.240;2023-07-28T03:00:04;4.05;;;1.30;;
20794;SDS011;28087;-33.874;151.240;2023-07-28T03:03:14;2.92;;;1.30;;
20794;SDS011;28087;-33.874;151.240;2023-07-28T03:06:26;4.60;;;1.30;;
20794;SDS011;28087;-33.874;151.240;2023-07-28T03:09:38;3.40;;;1.40;;
20794;SDS011;28087;-33.874;151.240;2023-07-28T03:12:49;4.20;;;1.20;;
20794;SDS011;28087;-33.874;151.240;2023-07-28T03:16:02;4.38;;;1.67;;
20794;SDS011;28087;-33.874;151.240;2023-07-28T03:19:25;5.65;;;1.45;;
20794;SDS011;28087;-33.874;151.240;2023-07-28T03:22:36;3.60;;;1.40;;
20794;SDS011;28087;-33.874;151.240;2023-07-28T03:25:43;6.10;;;1.60;;
20794;SDS011;28087;-33.874;151.240;2023-07-28T03:28:55;4.90;;;1.50;;
20794;SDS011;28087;-33.874;151.240;2023-07-28T03:32:07;5.78;;;1.90;;
20794;SDS011;28087;-33.874;151.240;2023-07-28T03:35:21;13.25;;;2.40;;
20794;SDS011;28087;-33.874;151.240;2023-07-28T03:38:34;6.97;;;1.65;;
20794;SDS011;28087;-33.874;151.240;2023-07-28T03:41:44;7.72;;;2.20;;
20794;SDS011;28087;-33.874;151.240;2023-07-28T03:44:57;7.75;;;1.83;;
20794;SDS011;28087;-33.874;151.240;2023-07-28T03:48:08;9.52;;;2.10;;
20794;SDS011;28087;-33.874;151.240;2023-07-28T03:51:19;6.20;;;1.67;;
20794;SDS011;28087;-33.874;151.240;2023-07-28T03:54:28;5.95;;;1.90;;
20794;SDS011;28087;-33.874;151.240;2023-07-28T03:57:45;4.68;;;1.70;;
20794;SDS011;28087;-33.874;151.240;2023-07-28T04:00:54;6.18;;;2.00;;
20794;SDS011;28087;-33.874;151.240;2023-07-28T04:04:06;4.95;;;1.92;;
20794;SDS011;28087;-33.874;151.240;2023-07-28T04:07:18;5.25;;;1.70;;
20794;SDS011;28087;-33.874;151.240;2023-07-28T04:10:30;5.90;;;1.50;;
20794;SDS011;28087;-33.874;151.240;2023-07-28T04:13:45;4.03;;;1.30;;
20794;SDS011;28087;-33.874;151.240;2023-07-28T04:17:04;4.95;;;1.25;;
20794;SDS011;28087;-33.874;151.240;2023-07-28T04:20:15;5.28;;;1.38;;
20794;SDS011;28087;-33.874;151.240;2023-07-28T04:23:25;4.50;;;1.45;;
20794;SDS011;28087;-33.874;151.240;2023-07-28T04:26:32;3.58;;;1.23;;
20794;SDS011;28087;-33.874;151.240;2023-07-28T04:29:43;5.07;;;1.60;;
20794;SDS011;28087;-33.874;151.240;2023-07-28T04:32:50;3.90;;;1.55;;
20794;SDS011;28087;-33.874;151.240;2023-07-28T04:35:57;5.68;;;1.70;;
20794;SDS011;28087;-33.874;151.240;2023-07-28T04:39:06;5.18;;;1.40;;
20794;SDS011;28087;-33.874;151.240;2023-07-28T04:42:12;3.85;;;1.50;;
20794;SDS011;28087;-33.874;151.240;2023-07-28T04:45:23;4.30;;;1.42;;
20794;SDS011;28087;-33.874;151.240;2023-07-28T04:48:33;4.85;;;1.40;;
20794;SDS011;28087;-33.874;151.240;2023-07-28T04:52:23;2.88;;;1.27;;
20794;SDS011;28087;-33.874;151.240;2023-07-28T04:55:51;3.70;;;1.40;;
20794;SDS011;28087;-33.874;151.240;2023-07-28T04:59:06;4.00;;;1.30;;
20794;SDS011;28087;-33.874;151.240;2023-07-28T05:02:11;4.90;;;1.30;;
20794;SDS011;28087;-33.874;151.240;2023-07-28T05:05:22;3.67;;;1.50;;
20794;SDS011;28087;-33.874;151.240;2023-07-28T05:08:49;4.50;;;1.40;;
20794;SDS011;28087;-33.874;151.240;2023-07-28T05:12:01;2.97;;;1.17;;
20794;SDS011;28087;-33.874;151.240;2023-07-28T05:15:19;4.55;;;1.30;;
20794;SDS011;28087;-33.874;151.240;2023-07-28T05:18:56;3.20;;;1.40;;
20794;SDS011;28087;-33.874;151.240;2023-07-28T05:22:22;3.45;;;1.30;;
20794;SDS011;28087;-33.874;151.240;2023-07-28T05:25:35;3.08;;;1.10;;
20794;SDS011;28087;-33.874;151.240;2023-07-28T05:28:46;3.55;;;1.10;;
20794;SDS011;28087;-33.874;151.240;2023-07-28T05:31:58;3.13;;;1.30;;
20794;SDS011;28087;-33.874;151.240;2023-07-28T05:35:21;4.47;;;1.42;;
20794;SDS011;28087;-33.874;151.240;2023-07-28T05:38:33;4.53;;;1.40;;
20794;SDS011;28087;-33.874;151.240;2023-07-28T05:41:48;3.47;;;1.30;;
20794;SDS011;28087;-33.874;151.240;2023-07-28T05:44:57;2.58;;;1.20;;
20794;SDS011;28087;-33.874;151.240;2023-07-28T05:48:05;4.35;;;1.42;;
20794;SDS011;28087;-33.874;151.240;2023-07-28T05:55:14;3.70;;;1.23;;
20794;SDS011;28087;-33.874;151.240;2023-07-28T05:58:48;3.10;;;1.27;;
20794;SDS011;28087;-33.874;151.240;2023-07-28T06:02:02;4.53;;;1.30;;
20794;SDS011;28087;-33.874;151.240;2023-07-28T06:05:15;4.25;;;1.17;;
20794;SDS011;28087;-33.874;151.240;2023-07-28T06:08:23;3.10;;;1.05;;
20794;SDS011;28087;-33.874;151.240;2023-07-28T06:11:33;2.28;;;0.90;;
20794;SDS011;28087;-33.874;151.240;2023-07-28T06:14:43;2.50;;;1.10;;
20794;SDS011;28087;-33.874;151.240;2023-07-28T06:17:54;3.13;;;0.95;;
20794;SDS011;28087;-33.874;151.240;2023-07-28T06:21:05;2.75;;;1.08;;
20794;SDS011;28087;-33.874;151.240;2023-07-28T06:24:11;2.17;;;0.90;;
20794;SDS011;28087;-33.874;151.240;2023-07-28T06:27:19;2.92;;;0.90;;
20794;SDS011;28087;-33.874;151.240;2023-07-28T06:30:28;2.30;;;0.90;;
20794;SDS011;28087;-33.874;151.240;2023-07-28T06:33:38;1.85;;;0.98;;
20794;SDS011;28087;-33.874;151.240;2023-07-28T06:36:47;2.95;;;1.00;;
20794;SDS011;28087;-33.874;151.240;2023-07-28T06:39:55;4.30;;;1.20;;
20794;SDS011;28087;-33.874;151.240;2023-07-28T06:43:04;3.03;;;0.90;;
20794;SDS011;28087;-33.874;151.240;2023-07-28T06:46:15;2.28;;;1.00;;
20794;SDS011;28087;-33.874;151.240;2023-07-28T06:49:27;1.73;;;0.80;;
20794;SDS011;28087;-33.874;151.240;2023-07-28T06:52:34;2.40;;;0.88;;
20794;SDS011;28087;-33.874;151.240;2023-07-28T06:55:43;1.55;;;0.80;;
20794;SDS011;28087;-33.874;151.240;2023-07-28T06:58:51;2.75;;;1.00;;
20794;SDS011;28087;-33.874;151.240;2023-07-28T07:02:08;1.50;;;0.80;;
20794;SDS011;28087;-33.874;151.240;2023-07-28T07:05:29;2.03;;;0.80;;
20794;SDS011;28087;-33.874;151.240;2023-07-28T07:08:38;2.17;;;0.90;;
20794;SDS011;28087;-33.874;151.240;2023-07-28T07:11:45;1.88;;;0.85;;
20794;SDS011;28087;-33.874;151.240;2023-07-28T07:14:52;1.52;;;0.90;;
20794;SDS011;28087;-33.874;151.240;2023-07-28T07:17:59;9.27;;;1.65;;
20794;SDS011;28087;-33.874;151.240;2023-07-28T07:21:08;3.60;;;1.20;;
20794;SDS011;28087;-33.874;151.240;2023-07-28T07:24:15;4.00;;;1.45;;
20794;SDS011;28087;-33.874;151.240;2023-07-28T07:27:24;3.35;;;1.27;;
20794;SDS011;28087;-33.874;151.240;2023-07-28T07:30:36;2.70;;;1.17;;
20794;SDS011;28087;-33.874;151.240;2023-07-28T07:33:42;3.30;;;1.00;;
20794;SDS011;28087;-33.874;151.240;2023-07-28T07:36:51;4.70;;;1.30;;
20794;SDS011;28087;-33.874;151.240;2023-07-28T07:39:57;2.30;;;1.10;;
20794;SDS011;28087;-33.874;151.240;2023-07-28T07:43:04;2.92;;;1.10;;
20794;SDS011;28087;-33.874;151.240;2023-07-28T07:46:18;3.13;;;1.20;;
20794;SDS011;28087;-33.874;151.240;2023-07-28T07:49:24;2.45;;;1.10;;
20794;SDS011;28087;-33.874;151.240;2023-07-28T07:52:35;5.45;;;1.67;;
20794;SDS011;28087;-33.874;151.240;2023-07-28T07:55:45;4.72;;;1.40;;
20794;SDS011;28087;-33.874;151.240;2023-07-28T07:58:50;2.60;;;1.40;;
20794;SDS011;28087;-33.874;151.240;2023-07-28T08:01:59;2.80;;;1.60;;
20794;SDS011;28087;-33.874;151.240;2023-07-28T08:05:07;2.53;;;1.40;;
20794;SDS011;28087;-33.874;151.240;2023-07-28T08:08:14;4.60;;;1.50;;
20794;SDS011;28087;-33.874;151.240;2023-07-28T08:11:25;4.22;;;1.65;;
20794;SDS011;28087;-33.874;151.240;2023-07-28T08:14:33;3.45;;;1.80;;
20794;SDS011;28087;-33.874;151.240;2023-07-28T08:17:46;4.05;;;2.30;;
20794;SDS011;28087;-33.874;151.240;2023-07-28T08:20:53;4.50;;;2.50;;
20794;SDS011;28087;-33.874;151.240;2023-07-28T08:24:04;3.80;;;2.10;;
20794;SDS011;28087;-33.874;151.240;2023-07-28T08:27:13;5.78;;;2.60;;
20794;SDS011;28087;-33.874;151.240;2023-07-28T08:30:21;7.13;;;3.45;;
20794;SDS011;28087;-33.874;151.240;2023-07-28T08:33:29;5.57;;;2.80;;
20794;SDS011;28087;-33.874;151.240;2023-07-28T08:36:40;5.00;;;2.60;;
20794;SDS011;28087;-33.874;151.240;2023-07-28T08:39:50;3.97;;;2.30;;
20794;SDS011;28087;-33.874;151.240;2023-07-28T08:42:58;4.18;;;2.42;;
20794;SDS011;28087;-33.874;151.240;2023-07-28T08:46:08;3.85;;;2.10;;
20794;SDS011;28087;-33.874;151.240;2023-07-28T08:49:19;6.10;;;1.98;;
20794;SDS011;28087;-33.874;151.240;2023-07-28T08:52:28;5.53;;;2.05;;
20794;SDS011;28087;-33.874;151.240;2023-07-28T08:55:39;4.50;;;2.25;;
20794;SDS011;28087;-33.874;151.240;2023-07-28T08:58:57;5.15;;;2.55;;
20794;SDS011;28087;-33.874;151.240;2023-07-28T09:02:06;4.93;;;3.00;;
20794;SDS011;28087;-33.874;151.240;2023-07-28T09:05:19;7.25;;;3.88;;
20794;SDS011;28087;-33.874;151.240;2023-07-28T09:08:26;6.25;;;2.95;;
20794;SDS011;28087;-33.874;151.240;2023-07-28T09:11:45;6.55;;;3.50;;
20794;SDS011;28087;-33.874;151.240;2023-07-28T09:14:56;7.00;;;3.42;;
20794;SDS011;28087;-33.874;151.240;2023-07-28T09:18:05;5.88;;;2.80;;
20794;SDS011;28087;-33.874;151.240;2023-07-28T09:21:17;4.70;;;2.72;;
20794;SDS011;28087;-33.874;151.240;2023-07-28T09:24:30;6.40;;;2.80;;
20794;SDS011;28087;-33.874;151.240;2023-07-28T09:27:38;5.40;;;2.80;;
20794;SDS011;28087;-33.874;151.240;2023-07-28T09:30:52;5.28;;;2.47;;
20794;SDS011;28087;-33.874;151.240;2023-07-28T09:34:01;6.97;;;2.45;;
20794;SDS011;28087;-33.874;151.240;2023-07-28T09:41:36;5.32;;;2.22;;
20794;SDS011;28087;-33.874;151.240;2023-07-28T09:44:55;6.30;;;2.58;;
20794;SDS011;28087;-33.874;151.240;2023-07-28T09:48:52;6.20;;;2.40;;
20794;SDS011;28087;-33.874;151.240;2023-07-28T09:52:05;5.75;;;2.70;;
20794;SDS011;28087;-33.874;151.240;2023-07-28T09:55:13;5.90;;;2.35;;
20794;SDS011;28087;-33.874;151.240;2023-07-28T09:58:21;5.43;;;2.00;;
20794;SDS011;28087;-33.874;151.240;2023-07-28T10:01:34;3.92;;;2.05;;
20794;SDS011;28087;-33.874;151.240;2023-07-28T10:04:43;6.38;;;2.10;;
20794;SDS011;28087;-33.874;151.240;2023-07-28T10:07:52;6.32;;;2.10;;
20794;SDS011;28087;-33.874;151.240;2023-07-28T10:11:02;4.78;;;2.00;;
20794;SDS011;28087;-33.874;151.240;2023-07-28T10:14:10;5.32;;;2.13;;
20794;SDS011;28087;-33.874;151.240;2023-07-28T10:17:37;5.65;;;2.15;;
20794;SDS011;28087;-33.874;151.240;2023-07-28T10:20:46;4.70;;;2.22;;
20794;SDS011;28087;-33.874;151.240;2023-07-28T10:23:54;9.10;;;5.10;;
20794;SDS011;28087;-33.874;151.240;2023-07-28T10:27:05;9.98;;;5.65;;
20794;SDS011;28087;-33.874;151.240;2023-07-28T10:30:14;10.88;;;4.25;;
20794;SDS011;28087;-33.874;151.240;2023-07-28T10:33:29;13.48;;;4.40;;
20794;SDS011;28087;-33.874;151.240;2023-07-28T10:36:37;6.60;;;3.30;;
20794;SDS011;28087;-33.874;151.240;2023-07-28T10:39:43;9.10;;;3.30;;
20794;SDS011;28087;-33.874;151.240;2023-07-28T10:42:52;6.65;;;3.05;;
20794;SDS011;28087;-33.874;151.240;2023-07-28T10:46:06;5.55;;;3.30;;
20794;SDS011;28087;-33.874;151.240;2023-07-28T10:49:19;8.23;;;2.90;;
20794;SDS011;28087;-33.874;151.240;2023-07-28T10:52:27;5.95;;;2.90;;
20794;SDS011;28087;-33.874;151.240;2023-07-28T10:55:29;7.50;;;3.30;;
20794;SDS011;28087;-33.874;151.240;2023-07-28T10:58:43;8.00;;;3.53;;
20794;SDS011;28087;-33.874;151.240;2023-07-28T11:01:52;5.25;;;3.30;;
20794;SDS011;28087;-33.874;151.240;2023-07-28T11:05:13;5.35;;;3.42;;
20794;SDS011;28087;-33.874;151.240;2023-07-28T11:08:23;7.53;;;3.40;;
20794;SDS011;28087;-33.874;151.240;2023-07-28T11:11:33;5.43;;;3.30;;
20794;SDS011;28087;-33.874;151.240;2023-07-28T11:14:43;5.75;;;3.38;;
20794;SDS011;28087;-33.874;151.240;2023-07-28T11:17:54;6.15;;;3.22;;
20794;SDS011;28087;-33.874;151.240;2023-07-28T11:21:05;6.10;;;3.17;;
20794;SDS011;28087;-33.874;151.240;2023-07-28T11:24:18;5.60;;;3.03;;
20794;SDS011;28087;-33.874;151.240;2023-07-28T11:27:25;6.13;;;3.30;;
20794;SDS011;28087;-33.874;151.240;2023-07-28T11:30:38;5.60;;;3.00;;
20794;SDS011;28087;-33.874;151.240;2023-07-28T11:33:44;5.55;;;3.50;;
20794;SDS011;28087;-33.874;151.240;2023-07-28T11:36:55;6.38;;;3.10;;
20794;SDS011;28087;-33.874;151.240;2023-07-28T11:40:08;5.30;;;3.45;;
20794;SDS011;28087;-33.874;151.240;2023-07-28T11:43:16;6.65;;;3.50;;
20794;SDS011;28087;-33.874;151.240;2023-07-28T11:46:33;5.68;;;3.47;;
20794;SDS011;28087;-33.874;151.240;2023-07-28T11:49:46;5.90;;;3.55;;
20794;SDS011;28087;-33.874;151.240;2023-07-28T11:52:57;6.72;;;3.83;;
20794;SDS011;28087;-33.874;151.240;2023-07-28T11:56:04;7.93;;;3.72;;
20794;SDS011;28087;-33.874;151.240;2023-07-28T11:59:10;8.30;;;4.13;;
20794;SDS011;28087;-33.874;151.240;2023-07-28T12:02:23;6.15;;;4.00;;
20794;SDS011;28087;-33.874;151.240;2023-07-28T12:05:32;7.38;;;4.43;;
20794;SDS011;28087;-33.874;151.240;2023-07-28T12:08:52;7.43;;;4.50;;
20794;SDS011;28087;-33.874;151.240;2023-07-28T12:12:04;8.23;;;4.32;;
20794;SDS011;28087;-33.874;151.240;2023-07-28T12:15:21;7.80;;;4.10;;
20794;SDS011;28087;-33.874;151.240;2023-07-28T12:18:34;7.07;;;4.20;;
20794;SDS011;28087;-33.874;151.240;2023-07-28T12:21:44;6.88;;;3.95;;
20794;SDS011;28087;-33.874;151.240;2023-07-28T12:24:54;6.80;;;3.72;;
20794;SDS011;28087;-33.874;151.240;2023-07-28T12:28:02;6.68;;;3.80;;
20794;SDS011;28087;-33.874;151.240;2023-07-28T12:31:09;6.32;;;3.60;;
20794;SDS011;28087;-33.874;151.240;2023-07-28T12:34:18;5.45;;;3.25;;
20794;SDS011;28087;-33.874;151.240;2023-07-28T12:37:33;7.40;;;3.28;;
20794;SDS011;28087;-33.874;151.240;2023-07-28T12:40:45;7.00;;;3.63;;
20794;SDS011;28087;-33.874;151.240;2023-07-28T12:43:55;8.63;;;3.80;;
20794;SDS011;28087;-33.874;151.240;2023-07-28T12:47:26;8.02;;;3.75;;
20794;SDS011;28087;-33.874;151.240;2023-07-28T12:50:33;9.32;;;3.75;;
20794;SDS011;28087;-33.874;151.240;2023-07-28T12:53:44;6.78;;;3.50;;
20794;SDS011;28087;-33.874;151.240;2023-07-28T12:56:55;7.22;;;3.70;;
20794;SDS011;28087;-33.874;151.240;2023-07-28T13:00:08;8.18;;;3.60;;
20794;SDS011;28087;-33.874;151.240;2023-07-28T13:03:24;8.23;;;3.45;;
20794;SDS011;28087;-33.874;151.240;2023-07-28T13:06:32;6.78;;;3.38;;
20794;SDS011;28087;-33.874;151.240;2023-07-28T13:10:02;6.72;;;3.30;;
20794;SDS011;28087;-33.874;151.240;2023-07-28T13:13:13;7.35;;;3.47;;
20794;SDS011;28087;-33.874;151.240;2023-07-28T13:16:29;7.25;;;3.30;;
20794;SDS011;28087;-33.874;151.240;2023-07-28T13:19:40;7.93;;;3.58;;
20794;SDS011;28087;-33.874;151.240;2023-07-28T13:22:53;5.70;;;3.25;;
20794;SDS011;28087;-33.874;151.240;2023-07-28T13:26:00;6.57;;;3.20;;
20794;SDS011;28087;-33.874;151.240;2023-07-28T13:29:08;6.03;;;3.30;;
20794;SDS011;28087;-33.874;151.240;2023-07-28T13:32:17;9.20;;;3.30;;
20794;SDS011;28087;-33.874;151.240;2023-07-28T13:35:25;7.45;;;3.25;;
20794;SDS011;28087;-33.874;151.240;2023-07-28T13:38:33;5.88;;;3.25;;
20794;SDS011;28087;-33.874;151.240;2023-07-28T13:41:49;6.00;;;3.50;;
20794;SDS011;28087;-33.874;151.240;2023-07-28T13:45:01;5.45;;;3.10;;
20794;SDS011;28087;-33.874;151.240;2023-07-28T13:48:12;8.00;;;3.78;;
20794;SDS011;28087;-33.874;151.240;2023-07-28T13:51:32;7.85;;;4.38;;
20794;SDS011;28087;-33.874;151.240;2023-07-28T13:54:42;10.60;;;4.72;;
20794;SDS011;28087;-33.874;151.240;2023-07-28T13:57:53;8.07;;;4.18;;
20794;SDS011;28087;-33.874;151.240;2023-07-28T14:01:07;8.48;;;4.22;;
20794;SDS011;28087;-33.874;151.240;2023-07-28T14:04:19;7.82;;;4.45;;
20794;SDS011;28087;-33.874;151.240;2023-07-28T14:07:28;8.23;;;4.70;;
20794;SDS011;28087;-33.874;151.240;2023-07-28T14:10:38;9.20;;;4.50;;
20794;SDS011;28087;-33.874;151.240;2023-07-28T14:13:46;10.10;;;4.82;;
20794;SDS011;28087;-33.874;151.240;2023-07-28T14:17:04;8.35;;;4.60;;
20794;SDS011;28087;-33.874;151.240;2023-07-28T14:20:13;8.07;;;4.82;;
20794;SDS011;28087;-33.874;151.240;2023-07-28T14:23:23;10.68;;;5.53;;
20794;SDS011;28087;-33.874;151.240;2023-07-28T14:26:30;9.10;;;5.65;;
20794;SDS011;28087;-33.874;151.240;2023-07-28T14:29:37;9.20;;;5.32;;
20794;SDS011;28087;-33.874;151.240;2023-07-28T14:32:49;9.75;;;5.65;;
20794;SDS011;28087;-33.874;151.240;2023-07-28T14:36:00;8.15;;;5.55;;
20794;SDS011;28087;-33.874;151.240;2023-07-28T14:39:08;8.90;;;5.50;;
20794;SDS011;28087;-33.874;151.240;2023-07-28T14:42:17;8.50;;;5.70;;
20794;SDS011;28087;-33.874;151.240;2023-07-28T14:45:29;10.10;;;5.65;;
20794;SDS011;28087;-33.874;151.240;2023-07-28T14:52:06;9.73;;;6.18;;
20794;SDS011;28087;-33.874;151.240;2023-07-28T14:55:14;9.00;;;5.45;;
20794;SDS011;28087;-33.874;151.240;2023-07-28T14:58:27;9.52;;;5.65;;
20794;SDS011;28087;-33.874;151.240;2023-07-28T15:01:35;10.07;;;5.95;;
20794;SDS011;28087;-33.874;151.240;2023-07-28T15:04:47;11.40;;;6.05;;
20794;SDS011;28087;-33.874;151.240;2023-07-28T15:08:05;10.60;;;5.95;;
20794;SDS011;28087;-33.874;151.240;2023-07-28T15:11:12;8.95;;;5.82;;
20794;SDS011;28087;-33.874;151.240;2023-07-28T15:14:25;9.30;;;6.13;;
20794;SDS011;28087;-33.874;151.240;2023-07-28T15:17:35;11.57;;;5.88;;
20794;SDS011;28087;-33.874;151.240;2023-07-28T15:20:44;8.80;;;5.70;;
20794;SDS011;28087;-33.874;151.240;2023-07-28T15:23:56;8.82;;;5.53;;
20794;SDS011;28087;-33.874;151.240;2023-07-28T15:27:02;10.32;;;5.07;;
20794;SDS011;28087;-33.874;151.240;2023-07-28T15:30:10;9.63;;;5.50;;
20794;SDS011;28087;-33.874;151.240;2023-07-28T15:33:18;8.88;;;5.03;;
20794;SDS011;28087;-33.874;151.240;2023-07-28T15:36:27;8.40;;;4.72;;
20794;SDS011;28087;-33.874;151.240;2023-07-28T15:39:37;7.65;;;4.65;;
20794;SDS011;28087;-33.874;151.240;2023-07-28T15:42:44;8.48;;;4.70;;
20794;SDS011;28087;-33.874;151.240;2023-07-28T15:45:50;8.80;;;4.80;;
20794;SDS011;28087;-33.874;151.240;2023-07-28T15:49:03;8.60;;;4.32;;
20794;SDS011;28087;-33.874;151.240;2023-07-28T15:52:10;9.07;;;4.57;;
20794;SDS011;28087;-33.874;151.240;2023-07-28T15:55:22;7.50;;;4.05;;
20794;SDS011;28087;-33.874;151.240;2023-07-28T15:58:31;6.85;;;4.35;;
20794;SDS011;28087;-33.874;151.240;2023-07-28T16:01:40;7.85;;;4.00;;
20794;SDS011;28087;-33.874;151.240;2023-07-28T16:04:46;8.23;;;4.20;;
20794;SDS011;28087;-33.874;151.240;2023-07-28T16:07:55;6.25;;;3.80;;
20794;SDS011;28087;-33.874;151.240;2023-07-28T16:11:02;7.60;;;4.07;;
20794;SDS011;28087;-33.874;151.240;2023-07-28T16:14:10;7.63;;;3.75;;
20794;SDS011;28087;-33.874;151.240;2023-07-28T16:17:26;6.38;;;3.47;;
20794;SDS011;28087;-33.874;151.240;2023-07-28T16:20:35;6.90;;;3.70;;
20794;SDS011;28087;-33.874;151.240;2023-07-28T16:23:42;6.78;;;3.60;;
20794;SDS011;28087;-33.874;151.240;2023-07-28T16:26:52;7.93;;;4.00;;
20794;SDS011;28087;-33.874;151.240;2023-07-28T16:29:59;6.57;;;3.55;;
20794;SDS011;28087;-33.874;151.240;2023-07-28T16:33:07;7.13;;;3.60;;
20794;SDS011;28087;-33.874;151.240;2023-07-28T16:36:13;6.10;;;3.70;;
20794;SDS011;28087;-33.874;151.240;2023-07-28T16:39:22;7.18;;;3.38;;
20794;SDS011;28087;-33.874;151.240;2023-07-28T16:42:32;7.47;;;4.05;;
20794;SDS011;28087;-33.874;151.240;2023-07-28T16:45:45;5.95;;;3.30;;
20794;SDS011;28087;-33.874;151.240;2023-07-28T16:48:56;5.90;;;3.30;;
20794;SDS011;28087;-33.874;151.240;2023-07-28T16:52:08;6.50;;;3.50;;
20794;SDS011;28087;-33.874;151.240;2023-07-28T16:55:16;6.47;;;3.20;;
20794;SDS011;28087;-33.874;151.240;2023-07-28T16:58:28;7.68;;;3.53;;
20794;SDS011;28087;-33.874;151.240;2023-07-28T17:01:39;7.38;;;3.53;;
20794;SDS011;28087;-33.874;151.240;2023-07-28T17:04:50;7.10;;;3.67;;
20794;SDS011;28087;-33.874;151.240;2023-07-28T17:08:01;6.13;;;3.53;;
20794;SDS011;28087;-33.874;151.240;2023-07-28T17:11:07;5.93;;;3.42;;
20794;SDS011;28087;-33.874;151.240;2023-07-28T17:14:18;7.20;;;3.67;;
20794;SDS011;28087;-33.874;151.240;2023-07-28T17:17:28;5.35;;;3.22;;
20794;SDS011;28087;-33.874;151.240;2023-07-28T17:20:38;8.75;;;3.92;;
20794;SDS011;28087;-33.874;151.240;2023-07-28T17:23:53;6.32;;;3.67;;
20794;SDS011;28087;-33.874;151.240;2023-07-28T17:27:23;6.57;;;3.63;;
20794;SDS011;28087;-33.874;151.240;2023-07-28T17:30:37;5.78;;;3.25;;
20794;SDS011;28087;-33.874;151.240;2023-07-28T17:33:46;6.90;;;3.50;;
20794;SDS011;28087;-33.874;151.240;2023-07-28T17:36:53;6.07;;;3.45;;
20794;SDS011;28087;-33.874;151.240;2023-07-28T17:40:01;7.68;;;3.95;;
20794;SDS011;28087;-33.874;151.240;2023-07-28T17:43:12;6.72;;;3.97;;
20794;SDS011;28087;-33.874;151.240;2023-07-28T17:46:22;8.45;;;3.65;;
20794;SDS011;28087;-33.874;151.240;2023-07-28T17:49:31;8.48;;;3.90;;
20794;SDS011;28087;-33.874;151.240;2023-07-28T17:52:39;7.40;;;3.70;;
20794;SDS011;28087;-33.874;151.240;2023-07-28T17:55:50;6.13;;;3.42;;
20794;SDS011;28087;-33.874;151.240;2023-07-28T17:58:59;8.52;;;4.15;;
20794;SDS011;28087;-33.874;151.240;2023-07-28T18:02:10;7.75;;;4.10;;
20794;SDS011;28087;-33.874;151.240;2023-07-28T18:05:31;7.78;;;4.30;;
20794;SDS011;28087;-33.874;151.240;2023-07-28T18:08:42;8.25;;;3.78;;
20794;SDS011;28087;-33.874;151.240;2023-07-28T18:11:53;8.38;;;3.85;;
20794;SDS011;28087;-33.874;151.240;2023-07-28T18:15:00;7.35;;;3.80;;
20794;SDS011;28087;-33.874;151.240;2023-07-28T18:18:24;6.88;;;4.15;;
20794;SDS011;28087;-33.874;151.240;2023-07-28T18:21:45;7.30;;;3.90;;
20794;SDS011;28087;-33.874;151.240;2023-07-28T18:25:00;8.48;;;4.47;;
20794;SDS011;28087;-33.874;151.240;2023-07-28T18:28:10;7.07;;;4.10;;
20794;SDS011;28087;-33.874;151.240;2023-07-28T18:31:25;8.25;;;4.03;;
20794;SDS011;28087;-33.874;151.240;2023-07-28T18:34:42;7.97;;;3.85;;
20794;SDS011;28087;-33.874;151.240;2023-07-28T18:37:49;7.85;;;4.22;;
20794;SDS011;28087;-33.874;151.240;2023-07-28T18:41:07;7.03;;;4.05;;
20794;SDS011;28087;-33.874;151.240;2023-07-28T18:44:15;7.50;;;4.07;;
20794;SDS011;28087;-33.874;151.240;2023-07-28T18:47:22;8.27;;;4.30;;
20794;SDS011;28087;-33.874;151.240;2023-07-28T18:50:41;7.82;;;4.57;;
20794;SDS011;28087;-33.874;151.240;2023-07-28T18:53:57;8.77;;;4.50;;